Terminal Aerodrome Forecast
Issued by NWS Buffalo, NY

Home | Current Version | Previous Version | Text Only | Print | Product List | Glossary On
Versions: 1 2 3 4 5 6 7 8 9 10 11 12 13 14 15 16 17 18 19 20 21 22 23 24 25
000
FTUS41 KBUF 042320
TAFROC
TAF
KROC 042320Z 0500/0524 24005KT P6SM VCSH SCT040 OVC080
      TEMPO 0501/0503 6SM -TSRA BKN040CB
     FM050600 25006KT P6SM SCT060
     FM051500 28013KT P6SM BKN050
     FM052200 29010KT P6SM SCT050=

USA.gov is the U.S. government's official web portal to all federal, state and local government web resources and services.